Time;durP1;ratioP1;P1;durP2;ratioP2;P2;SDS_P1;SDS_P2;PMS_P1;PMS_P2;Temp;Humidity;BMP_temperature;BMP_pressure;BME280_temperature;BME280_humidity;BME280_pressure;Samples;Min_cycle;Max_cycle;Signal;HPM_P1;HPM_P2
2021/12/08 00:01:40;;;;;;;12.13;3.97;;;;;;;;;;5023752;28;20545;-75
2021/12/08 00:04:06;;;;;;;6.63;3.88;;;;;;;;;;5042263;28;20114;-75
2021/12/08 00:06:31;;;;;;;6.45;3.72;;;;;;;;;;5023373;28;20028;-75
2021/12/08 00:09:05;;;;;;;4.47;3.58;;;;;;;;;;5042156;28;20073;-75
2021/12/08 00:14:15;;;;;;;6.57;3.67;;;;;;;;;;5042475;28;20483;-75
2021/12/08 00:16:41;;;;;;;4.70;3.85;;;;;;;;;;5041542;28;20048;-75
2021/12/08 00:19:07;;;;;;;6.15;4.00;;;;;;;;;;5041776;28;20415;-75
2021/12/08 00:21:32;;;;;;;8.05;3.92;;;;;;;;;;5042427;28;20025;-75
2021/12/08 00:23:58;;;;;;;7.25;3.55;;;;;;;;;;5041980;28;20091;-75
2021/12/08 00:26:23;;;;;;;3.50;2.85;;;;;;;;;;5042373;28;20037;-75
2021/12/08 00:28:49;;;;;;;2.40;2.17;;;;;;;;;;5023106;28;20543;-75
2021/12/08 00:31:14;;;;;;;4.13;3.17;;;;;;;;;;5024381;28;20043;-75
2021/12/08 00:33:40;;;;;;;3.20;2.85;;;;;;;;;;5041825;28;20052;-76
2021/12/08 00:36:11;;;;;;;4.30;2.65;;;;;;;;;;5041917;28;20132;-75
2021/12/08 00:38:36;;;;;;;7.53;3.60;;;;;;;;;;5041253;28;20041;-75
2021/12/08 00:41:03;;;;;;;5.22;3.55;;;;;;;;;;5041492;28;20094;-75
2021/12/08 00:43:28;;;;;;;4.75;3.50;;;;;;;;;;5024000;28;20045;-75
2021/12/08 00:45:54;;;;;;;3.30;2.97;;;;;;;;;;5041439;28;20036;-75
2021/12/08 00:48:21;;;;;;;2.92;2.08;;;;;;;;;;5041492;28;20047;-76
2021/12/08 00:50:47;;;;;;;3.92;2.70;;;;;;;;;;5041334;28;20043;-75
2021/12/08 00:53:14;;;;;;;2.65;2.42;;;;;;;;;;5042033;28;20029;-76
2021/12/08 00:55:39;;;;;;;3.72;2.97;;;;;;;;;;5041894;28;20273;-75
2021/12/08 00:58:06;;;;;;;3.25;2.28;;;;;;;;;;5041631;28;20057;-75
2021/12/08 01:00:39;;;;;;;4.22;3.17;;;;;;;;;;5040893;28;20453;-75
2021/12/08 01:03:10;;;;;;;2.80;2.47;;;;;;;;;;5041320;28;20659;-75
2021/12/08 01:05:41;;;;;;;5.97;3.30;;;;;;;;;;5046725;28;20032;-75
2021/12/08 01:08:07;;;;;;;3.83;2.58;;;;;;;;;;5042017;28;20526;-74
2021/12/08 01:10:34;;;;;;;2.88;2.63;;;;;;;;;;5040141;28;20032;-74
2021/12/08 01:13:00;;;;;;;4.50;2.67;;;;;;;;;;5040729;28;20442;-74
2021/12/08 01:15:27;;;;;;;5.13;2.90;;;;;;;;;;5041503;28;20041;-75
2021/12/08 01:17:54;;;;;;;4.38;2.80;;;;;;;;;;5041824;28;20063;-74
2021/12/08 01:20:20;;;;;;;6.72;3.10;;;;;;;;;;5041621;28;20045;-75
2021/12/08 01:22:46;;;;;;;4.28;3.00;;;;;;;;;;5022551;28;20094;-74
2021/12/08 01:25:13;;;;;;;2.88;2.60;;;;;;;;;;5039530;28;20131;-74
2021/12/08 01:27:39;;;;;;;5.43;3.35;;;;;;;;;;5040594;28;20072;-74
2021/12/08 01:30:06;;;;;;;5.13;2.97;;;;;;;;;;5022915;28;20041;-75
2021/12/08 01:32:32;;;;;;;2.83;2.40;;;;;;;;;;5023256;28;20514;-75
2021/12/08 01:34:58;;;;;;;3.47;2.92;;;;;;;;;;5039502;28;20082;-75
2021/12/08 01:37:24;;;;;;;4.25;3.00;;;;;;;;;;5040586;28;20049;-75
2021/12/08 01:39:49;;;;;;;3.42;3.00;;;;;;;;;;5025317;28;20048;-74
2021/12/08 01:42:27;;;;;;;8.63;2.67;;;;;;;;;;5041294;28;20037;-75
2021/12/08 01:47:36;;;;;;;6.15;3.10;;;;;;;;;;5040417;28;20040;-75
2021/12/08 01:50:04;;;;;;;7.03;3.10;;;;;;;;;;5040789;28;20150;-75
2021/12/08 01:52:30;;;;;;;5.20;3.50;;;;;;;;;;5022894;28;20048;-74
2021/12/08 01:54:55;;;;;;;4.82;3.28;;;;;;;;;;5022381;28;20044;-75
2021/12/08 01:57:21;;;;;;;3.95;3.10;;;;;;;;;;5039673;28;20033;-75
2021/12/08 01:59:47;;;;;;;5.63;3.38;;;;;;;;;;5040472;28;20049;-74
2021/12/08 02:02:13;;;;;;;4.47;3.15;;;;;;;;;;5040575;28;20029;-75
2021/12/08 02:04:38;;;;;;;4.90;3.38;;;;;;;;;;5040236;28;20116;-75
2021/12/08 02:07:04;;;;;;;5.07;3.58;;;;;;;;;;5021982;28;20120;-74
2021/12/08 02:09:30;;;;;;;3.97;3.42;;;;;;;;;;5022047;28;20036;-75
2021/12/08 02:11:56;;;;;;;3.72;2.95;;;;;;;;;;5040457;28;20041;-75
2021/12/08 02:14:23;;;;;;;4.03;2.70;;;;;;;;;;5040276;28;20037;-74
2021/12/08 02:16:51;;;;;;;6.70;3.10;;;;;;;;;;5040020;28;20048;-75
2021/12/08 02:19:16;;;;;;;3.38;3.05;;;;;;;;;;5004995;28;20039;-75
2021/12/08 02:21:43;;;;;;;4.75;2.80;;;;;;;;;;5039302;28;20037;-74
2021/12/08 02:24:12;;;;;;;4.70;3.22;;;;;;;;;;5041628;28;20037;-74
2021/12/08 02:26:41;;;;;;;3.80;3.05;;;;;;;;;;5044898;28;20040;-75
2021/12/08 02:29:11;;;;;;;7.15;2.78;;;;;;;;;;5044321;28;20135;-74
2021/12/08 02:47:54;;;;;;;5.00;3.00;;;;;;;;;;5044004;28;20136;-74
2021/12/08 02:50:29;;;;;;;4.20;2.70;;;;;;;;;;5043785;28;20520;-75
2021/12/08 02:52:56;;;;;;;4.65;2.80;;;;;;;;;;5042629;28;20713;-74
2021/12/08 02:55:22;;;;;;;3.13;2.83;;;;;;;;;;5039866;28;20037;-75
2021/12/08 02:57:47;;;;;;;6.75;3.10;;;;;;;;;;5043143;28;20110;-74
2021/12/08 03:00:18;;;;;;;3.40;2.78;;;;;;;;;;5042447;28;20040;-75
2021/12/08 03:02:44;;;;;;;3.22;2.90;;;;;;;;;;5025146;28;20037;-75
2021/12/08 03:05:09;;;;;;;3.92;2.70;;;;;;;;;;5043604;28;20079;-75
2021/12/08 03:07:35;;;;;;;3.67;2.60;;;;;;;;;;5043765;28;20033;-75
2021/12/08 03:10:07;;;;;;;3.15;2.70;;;;;;;;;;5043708;28;20415;-74
2021/12/08 03:12:32;;;;;;;6.60;3.33;;;;;;;;;;5042985;28;20079;-75
2021/12/08 03:14:58;;;;;;;3.78;2.45;;;;;;;;;;5043193;28;20199;-74
2021/12/08 03:17:24;;;;;;;4.05;2.40;;;;;;;;;;5043430;28;20917;-74
2021/12/08 03:19:49;;;;;;;4.95;2.17;;;;;;;;;;5043352;28;20041;-74
2021/12/08 03:22:15;;;;;;;4.15;2.67;;;;;;;;;;5025445;28;20029;-75
2021/12/08 03:24:44;;;;;;;2.72;1.73;;;;;;;;;;5042553;28;20029;-74
2021/12/08 03:27:16;;;;;;;2.88;2.08;;;;;;;;;;5025319;28;20028;-75
2021/12/08 03:32:14;;;;;;;3.10;2.03;;;;;;;;;;5025381;28;19917;-75
2021/12/08 03:34:50;;;;;;;4.72;2.35;;;;;;;;;;5041683;28;20045;-74
2021/12/08 03:37:17;;;;;;;3.50;2.40;;;;;;;;;;5041881;28;20236;-75
2021/12/08 03:39:43;;;;;;;2.25;1.98;;;;;;;;;;5042814;28;20037;-75
2021/12/08 03:42:09;;;;;;;4.50;2.45;;;;;;;;;;5042467;28;20047;-74
2021/12/08 03:44:35;;;;;;;2.17;2.03;;;;;;;;;;5042735;28;20475;-74
2021/12/08 03:47:04;;;;;;;3.45;2.08;;;;;;;;;;5041775;28;20041;-74
2021/12/08 03:49:30;;;;;;;2.33;1.90;;;;;;;;;;5042423;28;20506;-74
2021/12/08 03:51:59;;;;;;;2.00;1.83;;;;;;;;;;5042791;28;20131;-75
2021/12/08 03:54:25;;;;;;;4.32;2.00;;;;;;;;;;5041391;28;20037;-75
2021/12/08 03:56:50;;;;;;;2.20;1.98;;;;;;;;;;5041922;28;20052;-74
2021/12/08 03:59:15;;;;;;;2.40;1.90;;;;;;;;;;5024848;28;20047;-74
2021/12/08 04:01:41;;;;;;;1.80;1.70;;;;;;;;;;5042511;28;20048;-74
2021/12/08 04:04:09;;;;;;;1.48;1.38;;;;;;;;;;5045681;28;20064;-74
2021/12/08 04:06:48;;;;;;;2.15;1.73;;;;;;;;;;5044872;28;20045;-74
2021/12/08 04:09:39;;;;;;;2.03;1.75;;;;;;;;;;5041785;28;20116;-74
2021/12/08 04:12:04;;;;;;;2.03;1.77;;;;;;;;;;5042269;28;20045;-75
2021/12/08 04:14:37;;;;;;;2.00;1.80;;;;;;;;;;5042262;28;20102;-75
2021/12/08 04:17:25;;;;;;;2.63;1.75;;;;;;;;;;5041697;28;20128;-75
2021/12/08 04:19:53;;;;;;;1.77;1.67;;;;;;;;;;5023495;28;20087;-74
2021/12/08 04:22:24;;;;;;;2.08;1.88;;;;;;;;;;5042365;28;20086;-74
2021/12/08 04:24:51;;;;;;;1.80;1.70;;;;;;;;;;5041882;28;20119;-75
2021/12/08 04:27:21;;;;;;;2.13;1.65;;;;;;;;;;5042095;28;20056;-75
2021/12/08 04:29:48;;;;;;;1.85;1.55;;;;;;;;;;5006990;28;20571;-74
2021/12/08 04:32:16;;;;;;;1.83;1.73;;;;;;;;;;5041309;28;20032;-75
2021/12/08 04:34:45;;;;;;;2.80;2.15;;;;;;;;;;5042333;28;20446;-75
2021/12/08 04:37:20;;;;;;;2.30;1.77;;;;;;;;;;5041610;28;20072;-74
2021/12/08 04:40:00;;;;;;;2.53;1.90;;;;;;;;;;5041575;28;20032;-75
2021/12/08 04:42:46;;;;;;;2.38;1.90;;;;;;;;;;5041046;28;20037;-75
2021/12/08 04:45:19;;;;;;;3.17;2.03;;;;;;;;;;5041793;28;20037;-75
2021/12/08 04:48:05;;;;;;;2.15;1.95;;;;;;;;;;5039869;28;20551;-74
2021/12/08 04:51:05;;;;;;;4.55;2.30;;;;;;;;;;5041831;28;20052;-75
2021/12/08 05:00:16;;;;;;;6.22;3.10;;;;;;;;;;5039581;28;20028;-75
2021/12/08 05:04:50;;;;;;;4.55;3.25;;;;;;;;;;5038819;28;20041;-75
2021/12/08 05:09:58;;;;;;;3.10;1.90;;;;;;;;;;5022855;28;20047;-75
2021/12/08 05:12:28;;;;;;;3.15;2.65;;;;;;;;;;5041492;28;20661;-75
2021/12/08 05:14:56;;;;;;;2.70;2.30;;;;;;;;;;5040341;28;20036;-75
2021/12/08 05:17:33;;;;;;;2.78;2.25;;;;;;;;;;5041976;28;20044;-74
2021/12/08 05:20:06;;;;;;;7.65;5.72;;;;;;;;;;5041587;28;20047;-74
2021/12/08 05:22:39;;;;;;;3.33;2.47;;;;;;;;;;5040973;28;20533;-75
2021/12/08 05:25:11;;;;;;;7.32;2.22;;;;;;;;;;5041541;28;20214;-75
2021/12/08 05:27:43;;;;;;;2.35;2.15;;;;;;;;;;5041126;28;20052;-75
2021/12/08 05:30:39;;;;;;;2.88;1.90;;;;;;;;;;5041173;28;20036;-75
2021/12/08 05:33:05;;;;;;;2.28;1.92;;;;;;;;;;5043999;28;20048;-75
2021/12/08 05:35:32;;;;;;;2.47;2.28;;;;;;;;;;5044813;28;20048;-75
2021/12/08 05:37:57;;;;;;;2.47;2.28;;;;;;;;;;5039267;28;20055;-75
2021/12/08 05:40:50;;;;;;;3.67;3.13;;;;;;;;;;5041147;28;20033;-75
2021/12/08 05:43:16;;;;;;;3.00;2.60;;;;;;;;;;5041059;28;20040;-75
2021/12/08 05:45:43;;;;;;;2.95;2.65;;;;;;;;;;5040682;28;20507;-75
2021/12/08 05:48:09;;;;;;;3.47;2.40;;;;;;;;;;5040191;28;20381;-75
2021/12/08 05:50:43;;;;;;;3.60;2.10;;;;;;;;;;5037722;28;20483;-72
2021/12/08 05:53:09;;;;;;;4.50;2.45;;;;;;;;;;5039562;28;20454;-73
2021/12/08 05:55:36;;;;;;;2.55;2.33;;;;;;;;;;5021630;28;20045;-74
2021/12/08 05:58:04;;;;;;;3.13;2.55;;;;;;;;;;5039441;28;20051;-74
2021/12/08 06:00:40;;;;;;;3.65;2.58;;;;;;;;;;5043917;28;20032;-74
2021/12/08 06:03:06;;;;;;;3.15;2.47;;;;;;;;;;5044617;28;20051;-74
2021/12/08 06:05:32;;;;;;;2.88;2.17;;;;;;;;;;5043616;28;20037;-74
2021/12/08 06:07:57;;;;;;;3.95;2.50;;;;;;;;;;5044011;28;20037;-76
2021/12/08 06:10:29;;;;;;;3.75;2.55;;;;;;;;;;5043818;28;20033;-76
2021/12/08 06:12:55;;;;;;;3.53;2.10;;;;;;;;;;5044592;28;20045;-76
2021/12/08 06:15:21;;;;;;;3.50;2.25;;;;;;;;;;5042898;28;20036;-76
2021/12/08 06:17:47;;;;;;;2.58;2.00;;;;;;;;;;5042294;28;20107;-76
2021/12/08 06:20:15;;;;;;;4.60;2.15;;;;;;;;;;5041686;28;20060;-76
2021/12/08 06:22:43;;;;;;;2.97;2.20;;;;;;;;;;5041889;28;20028;-76
2021/12/08 06:25:11;;;;;;;5.40;2.65;;;;;;;;;;5042266;28;20033;-76
2021/12/08 06:27:38;;;;;;;3.78;2.47;;;;;;;;;;5042123;28;20520;-75
2021/12/08 06:30:10;;;;;;;3.85;2.80;;;;;;;;;;5042078;28;20094;-76
2021/12/08 06:32:35;;;;;;;23.95;8.30;;;;;;;;;;5042556;28;20123;-76
2021/12/08 06:35:04;;;;;;;11.32;4.55;;;;;;;;;;5043888;28;20116;-76
2021/12/08 06:37:37;;;;;;;5.45;3.08;;;;;;;;;;5043646;28;20025;-76
2021/12/08 06:40:14;;;;;;;3.97;2.97;;;;;;;;;;5043936;28;20037;-76
2021/12/08 06:42:42;;;;;;;2.92;2.65;;;;;;;;;;5044188;28;20061;-76
2021/12/08 06:45:13;;;;;;;5.55;3.10;;;;;;;;;;5042706;28;20070;-76
2021/12/08 06:47:39;;;;;;;3.13;2.75;;;;;;;;;;5044438;28;20110;-76
2021/12/08 06:50:13;;;;;;;3.47;3.03;;;;;;;;;;5043595;28;20148;-75
2021/12/08 06:52:39;;;;;;;6.45;3.10;;;;;;;;;;5043399;28;20423;-76
2021/12/08 06:55:12;;;;;;;5.32;3.00;;;;;;;;;;5025963;28;20072;-76
2021/12/08 06:58:06;;;;;;;5.82;2.83;;;;;;;;;;5042701;28;20098;-75
2021/12/08 07:00:53;;;;;;;2.95;2.65;;;;;;;;;;5024850;28;20053;-74
2021/12/08 07:06:12;;;;;;;5.43;3.57;;;;;;;;;;5041628;28;20049;-73
2021/12/08 07:08:43;;;;;;;4.13;3.72;;;;;;;;;;5043007;28;20338;-72
2021/12/08 07:11:10;;;;;;;4.10;3.22;;;;;;;;;;5043006;28;20946;-72
2021/12/08 07:13:36;;;;;;;5.65;4.00;;;;;;;;;;5043495;28;20171;-72
2021/12/08 07:16:16;;;;;;;5.15;3.60;;;;;;;;;;5041884;28;20146;-72
2021/12/08 07:19:33;;;;;;;4.22;3.60;;;;;;;;;;5025352;28;20044;-72
2021/12/08 07:22:01;;;;;;;6.28;4.10;;;;;;;;;;5043212;28;20037;-73
2021/12/08 07:24:31;;;;;;;5.85;3.95;;;;;;;;;;5043304;28;20052;-72
2021/12/08 07:27:06;;;;;;;4.82;3.70;;;;;;;;;;5024615;28;20047;-72
2021/12/08 07:29:34;;;;;;;6.25;3.92;;;;;;;;;;5042970;28;20056;-73
2021/12/08 07:32:07;;;;;;;4.68;3.88;;;;;;;;;;5043219;28;20119;-74
2021/12/08 07:34:35;;;;;;;5.68;4.35;;;;;;;;;;5043033;28;20119;-70
2021/12/08 07:37:04;;;;;;;6.10;3.92;;;;;;;;;;5041876;28;20041;-69
2021/12/08 07:39:37;;;;;;;5.72;3.55;;;;;;;;;;5042614;28;20044;-67
2021/12/08 07:42:09;;;;;;;4.45;3.40;;;;;;;;;;5041519;28;20036;-68
2021/12/08 07:44:34;;;;;;;4.65;3.40;;;;;;;;;;5042634;28;20056;-68
2021/12/08 07:47:06;;;;;;;4.22;3.00;;;;;;;;;;5042751;28;20517;-68
2021/12/08 07:49:36;;;;;;;5.13;3.28;;;;;;;;;;5042480;28;20028;-69
2021/12/08 07:52:24;;;;;;;5.93;3.10;;;;;;;;;;5043200;28;20044;-68
2021/12/08 07:54:50;;;;;;;5.03;3.65;;;;;;;;;;5042328;28;20055;-69
2021/12/08 07:57:21;;;;;;;4.88;3.95;;;;;;;;;;5042585;28;20028;-67
2021/12/08 07:59:50;;;;;;;18.67;8.75;;;;;;;;;;5041157;28;20036;-68
2021/12/08 08:02:16;;;;;;;12.18;6.00;;;;;;;;;;5042379;28;20120;-67
2021/12/08 08:04:46;;;;;;;6.18;3.88;;;;;;;;;;5042147;28;20530;-69
2021/12/08 08:07:12;;;;;;;6.50;4.47;;;;;;;;;;5042392;28;20032;-68
2021/12/08 08:09:42;;;;;;;8.20;5.43;;;;;;;;;;5041073;28;20037;-68
2021/12/08 08:12:13;;;;;;;74.85;28.10;;;;;;;;;;5042124;28;20040;-68
2021/12/08 08:14:42;;;;;;;13.05;6.78;;;;;;;;;;5042127;28;20036;-69
2021/12/08 08:17:13;;;;;;;5.55;3.60;;;;;;;;;;5041261;28;20151;-67
2021/12/08 08:19:44;;;;;;;4.90;3.03;;;;;;;;;;5041985;28;20045;-69
2021/12/08 08:22:14;;;;;;;6.47;3.38;;;;;;;;;;5040522;28;20491;-67
2021/12/08 08:24:40;;;;;;;3.28;2.95;;;;;;;;;;5042007;28;20044;-71
2021/12/08 08:27:08;;;;;;;4.47;2.95;;;;;;;;;;5041483;28;20033;-68
2021/12/08 08:29:34;;;;;;;3.63;2.75;;;;;;;;;;5041238;28;20029;-67
2021/12/08 08:32:09;;;;;;;3.80;3.35;;;;;;;;;;5040752;28;20044;-68
2021/12/08 08:34:39;;;;;;;4.07;3.08;;;;;;;;;;5041665;28;20052;-68
2021/12/08 08:37:09;;;;;;;4.35;2.95;;;;;;;;;;5041679;28;20049;-69
2021/12/08 08:39:38;;;;;;;3.83;2.97;;;;;;;;;;5041542;28;20025;-68
2021/12/08 08:42:13;;;;;;;4.07;2.85;;;;;;;;;;5040059;28;20032;-69
2021/12/08 08:44:47;;;;;;;5.07;3.20;;;;;;;;;;5041456;28;20150;-69
2021/12/08 08:47:22;;;;;;;4.07;2.75;;;;;;;;;;5041399;28;20911;-69
2021/12/08 08:49:50;;;;;;;6.70;4.30;;;;;;;;;;5041009;28;20044;-68
2021/12/08 08:52:31;;;;;;;7.13;4.95;;;;;;;;;;5040947;28;20029;-68
2021/12/08 08:55:01;;;;;;;4.75;3.47;;;;;;;;;;5040507;28;20037;-68
2021/12/08 08:57:34;;;;;;;5.78;4.10;;;;;;;;;;5041330;28;20040;-68
2021/12/08 09:00:25;;;;;;;20.25;5.50;;;;;;;;;;5041262;28;20056;-69
2021/12/08 09:02:52;;;;;;;6.60;3.20;;;;;;;;;;5041017;28;20132;-71
2021/12/08 09:05:23;;;;;;;3.85;3.35;;;;;;;;;;5040313;28;20039;-69
2021/12/08 09:07:51;;;;;;;8.50;4.60;;;;;;;;;;5041032;28;20468;-68
2021/12/08 09:10:49;;;;;;;17.50;8.25;;;;;;;;;;5039939;28;20048;-67
2021/12/08 09:13:21;;;;;;;6.60;5.05;;;;;;;;;;5032847;28;20086;-70
2021/12/08 09:15:54;;;;;;;9.05;4.88;;;;;;;;;;5040654;28;20064;-70
2021/12/08 09:18:49;;;;;;;6.57;3.95;;;;;;;;;;5039419;28;20071;-71
2021/12/08 09:21:18;;;;;;;6.32;3.92;;;;;;;;;;5041215;28;20719;-70
2021/12/08 09:24:14;;;;;;;7.65;4.13;;;;;;;;;;5040767;28;20067;-70
2021/12/08 09:26:45;;;;;;;7.05;4.32;;;;;;;;;;5039864;28;20028;-70
2021/12/08 09:29:18;;;;;;;7.83;4.10;;;;;;;;;;5040843;28;20567;-70
2021/12/08 09:31:55;;;;;;;5.28;3.75;;;;;;;;;;5041115;28;20033;-69
2021/12/08 09:34:28;;;;;;;4.95;4.07;;;;;;;;;;5040621;28;20075;-70
2021/12/08 09:37:03;;;;;;;;;;;;;;;;;;5041070;28;20056;-68
2021/12/08 09:39:43;;;;;;;4.18;3.55;;;;;;;;;;5039848;28;20528;-69
2021/12/08 09:42:14;;;;;;;7.68;4.43;;;;;;;;;;5040974;28;20414;-70
2021/12/08 09:44:43;;;;;;;7.18;4.32;;;;;;;;;;5040655;28;20032;-70
2021/12/08 09:47:09;;;;;;;5.65;3.88;;;;;;;;;;5022647;28;20037;-69
2021/12/08 09:49:35;;;;;;;8.07;3.72;;;;;;;;;;5039704;28;20040;-70
2021/12/08 09:52:05;;;;;;;4.28;3.50;;;;;;;;;;5040965;28;20451;-70
2021/12/08 09:54:31;;;;;;;4.18;3.22;;;;;;;;;;5040883;28;20384;-69
2021/12/08 09:56:59;;;;;;;5.57;3.80;;;;;;;;;;5040466;28;20051;-70
2021/12/08 09:59:25;;;;;;;6.28;4.47;;;;;;;;;;5039861;28;20102;-72
2021/12/08 10:01:53;;;;;;;8.38;5.28;;;;;;;;;;5040837;28;20036;-70
2021/12/08 10:04:19;;;;;;;7.93;4.45;;;;;;;;;;5040272;28;20029;-71
2021/12/08 10:06:49;;;;;;;8.68;4.07;;;;;;;;;;5040580;28;20029;-69
2021/12/08 10:09:18;;;;;;;10.13;4.75;;;;;;;;;;5040159;28;20091;-69
2021/12/08 10:11:44;;;;;;;7.70;4.88;;;;;;;;;;5039668;28;20094;-71
2021/12/08 10:14:10;;;;;;;6.25;4.18;;;;;;;;;;5040279;28;20037;-70
2021/12/08 10:16:36;;;;;;;5.70;3.60;;;;;;;;;;5039939;28;20562;-70
2021/12/08 10:19:02;;;;;;;5.78;3.60;;;;;;;;;;5038749;28;20078;-69
2021/12/08 10:21:34;;;;;;;4.70;3.30;;;;;;;;;;5039101;28;20146;-71
2021/12/08 10:24:00;;;;;;;6.35;3.63;;;;;;;;;;5037792;28;20480;-69
2021/12/08 10:26:25;;;;;;;3.20;2.72;;;;;;;;;;5039672;28;20123;-69
2021/12/08 10:28:56;;;;;;;4.60;3.67;;;;;;;;;;5039363;28;20415;-69
2021/12/08 10:31:33;;;;;;;4.95;3.70;;;;;;;;;;5040043;28;20461;-70
2021/12/08 10:36:46;;;;;;;7.03;2.85;;;;;;;;;;5039631;28;20048;-70
2021/12/08 10:39:35;;;;;;;3.33;3.03;;;;;;;;;;5039608;28;20040;-70
2021/12/08 10:42:23;;;;;;;4.50;3.30;;;;;;;;;;5040240;28;20102;-70
2021/12/08 10:47:36;;;;;;;8.15;4.57;;;;;;;;;;5043920;28;20032;-70
2021/12/08 10:55:22;;;;;;;5.78;3.80;;;;;;;;;;5042715;28;20111;-70
2021/12/08 10:57:53;;;;;;;4.18;3.17;;;;;;;;;;5043843;28;20037;-70
2021/12/08 11:00:30;;;;;;;4.07;3.05;;;;;;;;;;5043496;28;20559;-69
2021/12/08 11:03:00;;;;;;;5.22;3.10;;;;;;;;;;5043714;28;20037;-70
2021/12/08 11:05:27;;;;;;;4.82;3.10;;;;;;;;;;5043168;28;20064;-69
2021/12/08 11:08:19;;;;;;;3.88;3.47;;;;;;;;;;5043208;28;20522;-70
2021/12/08 11:10:52;;;;;;;5.13;3.58;;;;;;;;;;5043678;28;20087;-70
2021/12/08 11:16:08;;;;;;;7.35;3.53;;;;;;;;;;5131752;23;20118;-70
2021/12/08 11:18:38;;;;;;;7.57;4.13;;;;;;;;;;5036804;28;20037;-69
2021/12/08 11:21:10;;;;;;;6.90;5.05;;;;;;;;;;5042301;28;20098;-70
2021/12/08 11:23:54;;;;;;;8.57;4.43;;;;;;;;;;5040026;28;20519;-70
2021/12/08 11:26:29;;;;;;;6.53;4.00;;;;;;;;;;4942140;28;20188;-69
2021/12/08 11:29:06;;;;;;;4.70;3.67;;;;;;;;;;4943353;28;20397;-71
2021/12/08 11:31:33;;;;;;;5.40;3.40;;;;;;;;;;4962019;28;20039;-69
2021/12/08 11:34:04;;;;;;;7.00;3.55;;;;;;;;;;4943111;28;20047;-68
2021/12/08 11:36:33;;;;;;;6.77;4.40;;;;;;;;;;4942390;28;20073;-68
2021/12/08 11:39:07;;;;;;;13.40;6.25;;;;;;;;;;4973819;28;20516;-68
2021/12/08 11:41:38;;;;;;;9.73;6.18;;;;;;;;;;4968752;28;20093;-68
2021/12/08 11:44:20;;;;;;;11.48;6.05;;;;;;;;;;4942817;28;20050;-69
2021/12/08 11:46:53;;;;;;;6.88;4.38;;;;;;;;;;4940643;28;20429;-69
2021/12/08 11:49:19;;;;;;;7.07;3.50;;;;;;;;;;4942470;28;20493;-68
2021/12/08 11:51:45;;;;;;;6.15;3.40;;;;;;;;;;4988486;28;20496;-68
2021/12/08 11:54:39;;;;;;;5.55;3.30;;;;;;;;;;4983272;28;20033;-68
2021/12/08 11:57:27;;;;;;;5.28;3.35;;;;;;;;;;4952617;28;20031;-70
2021/12/08 11:59:59;;;;;;;5.35;3.58;;;;;;;;;;5004674;28;20352;-69
2021/12/08 12:02:31;;;;;;;5.75;2.80;;;;;;;;;;4964226;28;20035;-69
2021/12/08 12:04:57;;;;;;;4.15;3.10;;;;;;;;;;4941449;28;20050;-69
2021/12/08 12:07:23;;;;;;;5.35;3.97;;;;;;;;;;4941976;28;20031;-69
2021/12/08 12:09:49;;;;;;;6.70;3.70;;;;;;;;;;4941677;28;20035;-70
2021/12/08 12:12:15;;;;;;;10.02;3.95;;;;;;;;;;4966800;28;20046;-69
2021/12/08 12:14:41;;;;;;;4.18;3.47;;;;;;;;;;4941212;28;20027;-70
2021/12/08 12:17:06;;;;;;;3.25;2.42;;;;;;;;;;4941529;28;20047;-69
2021/12/08 12:19:39;;;;;;;5.18;3.05;;;;;;;;;;4941663;28;20051;-70
2021/12/08 12:22:16;;;;;;;5.15;2.55;;;;;;;;;;4940316;28;20054;-70
2021/12/08 12:25:20;;;;;;;3.72;2.78;;;;;;;;;;4941834;28;20512;-69
2021/12/08 12:28:18;;;;;;;5.35;3.00;;;;;;;;;;4976654;28;20053;-70
2021/12/08 12:31:25;;;;;;;5.40;3.05;;;;;;;;;;4941048;28;20035;-70
2021/12/08 12:33:52;;;;;;;5.68;2.78;;;;;;;;;;4970672;28;20066;-69
2021/12/08 12:36:21;;;;;;;6.78;3.15;;;;;;;;;;4956445;28;20122;-70
2021/12/08 12:38:47;;;;;;;5.30;3.58;;;;;;;;;;4961703;28;20391;-70
2021/12/08 12:41:26;;;;;;;5.05;3.75;;;;;;;;;;4940062;28;20065;-69
2021/12/08 12:43:51;;;;;;;3.72;3.15;;;;;;;;;;4939973;28;20101;-69
2021/12/08 12:46:17;;;;;;;6.80;4.20;;;;;;;;;;4957456;28;20098;-68
2021/12/08 12:48:51;;;;;;;5.60;3.75;;;;;;;;;;4958933;28;20043;-70
2021/12/08 12:51:18;;;;;;;6.70;3.38;;;;;;;;;;4954164;28;20035;-70
2021/12/08 12:53:53;;;;;;;6.78;3.78;;;;;;;;;;4949616;28;20040;-70
2021/12/08 12:56:34;;;;;;;7.72;3.67;;;;;;;;;;4972358;28;20033;-70
2021/12/08 12:59:10;;;;;;;4.85;3.88;;;;;;;;;;4967271;28;20047;-69
2021/12/08 13:01:43;;;;;;;5.90;3.90;;;;;;;;;;4939639;28;20117;-69
2021/12/08 13:04:20;;;;;;;4.72;3.70;;;;;;;;;;4940246;28;20102;-69
2021/12/08 13:06:48;;;;;;;11.75;5.85;;;;;;;;;;4965357;28;20567;-68
2021/12/08 13:09:35;;;;;;;8.77;4.65;;;;;;;;;;4964024;28;20047;-68
2021/12/08 13:12:09;;;;;;;6.13;4.03;;;;;;;;;;4940218;28;20137;-68
2021/12/08 13:14:34;;;;;;;7.18;4.22;;;;;;;;;;4978084;28;20035;-69
2021/12/08 13:17:26;;;;;;;7.57;3.83;;;;;;;;;;4944767;28;20051;-68
2021/12/08 13:20:00;;;;;;;5.25;4.05;;;;;;;;;;4954770;28;20142;-68
2021/12/08 13:23:00;;;;;;;4.95;3.92;;;;;;;;;;4939907;28;20031;-69
2021/12/08 13:25:32;;;;;;;8.20;3.90;;;;;;;;;;4953759;28;20029;-69
2021/12/08 13:28:12;;;;;;;;;;;;;;;;;;4959145;28;20066;-70
2021/12/08 13:30:51;;;;;;;6.30;4.13;;;;;;;;;;4950559;28;19912;-69
2021/12/08 13:33:26;;;;;;;10.40;5.65;;;;;;;;;;4944532;28;20047;-68
2021/12/08 13:35:53;;;;;;;6.65;4.47;;;;;;;;;;4975438;28;20487;-69
2021/12/08 13:38:19;;;;;;;8.57;4.90;;;;;;;;;;4967963;28;20023;-70
2021/12/08 13:40:53;;;;;;;10.35;5.40;;;;;;;;;;4992413;28;20091;-70
2021/12/08 13:43:36;;;;;;;7.32;5.05;;;;;;;;;;4985760;28;20036;-71
2021/12/08 13:46:03;;;;;;;7.55;4.60;;;;;;;;;;4976305;28;20039;-70
2021/12/08 13:48:28;;;;;;;6.88;4.32;;;;;;;;;;4981468;28;20043;-70
2021/12/08 13:51:14;;;;;;;7.18;5.03;;;;;;;;;;4968616;28;20054;-69
2021/12/08 13:53:39;;;;;;;7.47;4.55;;;;;;;;;;4939285;28;20031;-71
2021/12/08 13:56:05;;;;;;;6.60;4.47;;;;;;;;;;4938716;28;20391;-69
2021/12/08 13:58:37;;;;;;;5.30;4.13;;;;;;;;;;4938921;28;20241;-70
2021/12/08 14:01:03;;;;;;;;;;;;;;;;;;4939970;28;20081;-71
2021/12/08 14:03:39;;;;;;;4.85;3.92;;;;;;;;;;4975028;28;19917;-70
2021/12/08 14:06:07;;;;;;;4.97;3.70;;;;;;;;;;4968357;28;20048;-70
2021/12/08 14:08:45;;;;;;;8.75;4.05;;;;;;;;;;4942835;28;20065;-69
2021/12/08 14:11:19;;;;;;;17.88;4.32;;;;;;;;;;4989131;28;20033;-70
2021/12/08 14:13:51;;;;;;;5.63;4.75;;;;;;;;;;4983151;28;20122;-70
2021/12/08 14:16:24;;;;;;;4.85;4.10;;;;;;;;;;4927597;28;1085718;-69
2021/12/08 14:18:51;;;;;;;6.82;4.18;;;;;;;;;;4974778;28;20047;-71
2021/12/08 14:21:34;;;;;;;8.05;5.40;;;;;;;;;;4973417;28;20027;-71
2021/12/08 14:24:10;;;;;;;10.13;4.05;;;;;;;;;;4963680;28;20043;-72
2021/12/08 14:26:38;;;;;;;9.80;4.68;;;;;;;;;;4943189;28;20084;-73
2021/12/08 14:29:13;;;;;;;7.22;4.65;;;;;;;;;;4980695;28;20039;-73
2021/12/08 14:31:44;;;;;;;4.80;3.88;;;;;;;;;;4980382;28;20035;-73
2021/12/08 14:34:34;;;;;;;4.63;3.53;;;;;;;;;;4941986;28;20058;-73
2021/12/08 14:37:17;;;;;;;8.00;4.15;;;;;;;;;;4979755;28;20020;-73
2021/12/08 14:39:45;;;;;;;4.97;4.05;;;;;;;;;;4960282;28;20039;-73
2021/12/08 14:42:15;;;;;;;10.57;7.25;;;;;;;;;;4985967;28;20085;-73
2021/12/08 14:44:55;;;;;;;7.60;5.32;;;;;;;;;;4996895;28;20524;-73
2021/12/08 14:47:34;;;;;;;6.28;4.65;;;;;;;;;;4943382;28;20046;-73
2021/12/08 14:50:06;;;;;;;6.25;4.22;;;;;;;;;;4943091;28;20498;-72
2021/12/08 14:52:34;;;;;;;7.68;4.00;;;;;;;;;;4942958;28;20513;-75
2021/12/08 14:55:01;;;;;;;7.72;4.65;;;;;;;;;;4972637;28;20033;-74
2021/12/08 14:57:30;;;;;;;6.40;5.07;;;;;;;;;;4972317;28;20445;-73
2021/12/08 14:59:58;;;;;;;5.80;4.60;;;;;;;;;;4942475;28;20039;-73
2021/12/08 15:02:36;;;;;;;8.20;4.85;;;;;;;;;;4970150;28;20411;-73
2021/12/08 15:05:10;;;;;;;7.20;4.78;;;;;;;;;;4954652;28;21137;-74
2021/12/08 15:07:36;;;;;;;6.70;4.90;;;;;;;;;;4973568;28;20029;-74
2021/12/08 15:10:05;;;;;;;5.97;4.05;;;;;;;;;;4971983;28;20399;-76
2021/12/08 15:16:20;;;;;;;6.50;5.00;;;;;;;;;;5264427;23;20054;-72
2021/12/08 15:18:51;;;;;;;6.55;4.53;;;;;;;;;;4986012;28;20041;-72
2021/12/08 15:21:26;;;;;;;7.43;4.43;;;;;;;;;;5002940;28;20126;-73
2021/12/08 15:24:02;;;;;;;5.63;4.57;;;;;;;;;;5040360;28;20044;-72
2021/12/08 15:26:29;;;;;;;6.82;5.03;;;;;;;;;;5000287;28;20030;-73
2021/12/08 15:28:55;;;;;;;9.75;5.25;;;;;;;;;;4962025;28;20049;-71
2021/12/08 15:31:49;;;;;;;8.00;4.78;;;;;;;;;;4962644;28;20251;-73
2021/12/08 15:34:19;;;;;;;7.75;4.72;;;;;;;;;;4982211;28;20100;-71
2021/12/08 15:36:55;;;;;;;9.27;4.25;;;;;;;;;;4996357;28;20028;-73
2021/12/08 15:39:22;;;;;;;6.55;4.63;;;;;;;;;;5016924;28;20064;-73
2021/12/08 15:41:48;;;;;;;4.63;3.90;;;;;;;;;;4970457;28;20084;-73
2021/12/08 15:44:16;;;;;;;7.45;5.68;;;;;;;;;;4961772;28;20049;-74
2021/12/08 15:46:44;;;;;;;19.15;10.50;;;;;;;;;;4960022;28;20477;-74
2021/12/08 15:49:16;;;;;;;11.15;8.10;;;;;;;;;;4960618;28;20031;-71
2021/12/08 15:51:42;;;;;;;9.52;5.28;;;;;;;;;;4978048;28;20248;-72
2021/12/08 15:54:08;;;;;;;7.28;5.57;;;;;;;;;;4959312;28;20068;-71
2021/12/08 15:56:38;;;;;;;9.90;7.57;;;;;;;;;;4969353;28;20038;-71
2021/12/08 15:59:19;;;;;;;7.97;5.95;;;;;;;;;;4964592;28;20135;-74
2021/12/08 16:01:45;;;;;;;15.02;8.20;;;;;;;;;;4998186;28;20091;-73
2021/12/08 16:04:11;;;;;;;9.43;6.65;;;;;;;;;;4975987;28;20502;-73